createdAt,value
2018-02-23T00:00:39.584Z,51.00
2018-02-23T00:03:07.252Z,51.40
2018-02-23T00:05:34.939Z,51.30
2018-02-23T00:08:02.435Z,51.60
2018-02-23T00:10:30.468Z,51.50
2018-02-23T00:12:57.911Z,51.40
2018-02-23T00:15:25.385Z,51.60
2018-02-23T00:17:52.842Z,51.30
2018-02-23T00:20:20.309Z,50.90
2018-02-23T00:22:47.840Z,51.00
2018-02-23T00:25:16.760Z,51.30
2018-02-23T00:27:44.280Z,51.30
2018-02-23T00:30:11.774Z,51.40
2018-02-23T00:32:39.230Z,50.60
2018-02-23T00:35:06.694Z,51.10
2018-02-23T00:37:34.581Z,50.90
2018-02-23T00:40:02.033Z,50.90
2018-02-23T00:42:29.485Z,50.90
2018-02-23T00:44:57.349Z,51.10
2018-02-23T00:47:25.283Z,51.30
2018-02-23T00:49:52.866Z,51.30
2018-02-23T00:52:20.306Z,51.20
2018-02-23T00:54:48.189Z,51.20
2018-02-23T00:57:15.661Z,51.20
2018-02-23T00:59:43.110Z,51.20
2018-02-23T01:02:10.592Z,51.20
2018-02-23T01:04:38.105Z,51.10
2018-02-23T01:07:05.595Z,51.10
2018-02-23T01:09:33.057Z,50.30
2018-02-23T01:12:01.147Z,50.70
2018-02-23T01:14:28.657Z,51.10
2018-02-23T01:16:56.108Z,51.10
2018-02-23T01:19:23.599Z,50.80
2018-02-23T01:21:51.109Z,50.90
2018-02-23T01:24:18.553Z,51.00
2018-02-23T01:26:46.027Z,50.80
2018-02-23T01:29:13.929Z,50.80
2018-02-23T01:31:41.459Z,50.80
2018-02-23T01:34:09.321Z,50.50
2018-02-23T01:36:36.810Z,50.50
2018-02-23T01:39:04.758Z,50.40
2018-02-23T01:41:32.305Z,50.40
2018-02-23T01:44:00.558Z,50.50
2018-02-23T01:46:28.034Z,50.50
2018-02-23T01:48:55.505Z,50.40
2018-02-23T01:51:22.982Z,50.90
2018-02-23T01:53:50.541Z,50.70
2018-02-23T01:56:17.999Z,50.60
2018-02-23T01:58:45.569Z,50.70
2018-02-23T02:01:13.059Z,50.70
2018-02-23T02:03:40.903Z,50.90
2018-02-23T02:06:08.385Z,51.00
2018-02-23T02:08:36.281Z,50.70
2018-02-23T02:11:03.751Z,50.70
2018-02-23T02:13:31.196Z,50.50
2018-02-23T02:15:58.694Z,50.50
2018-02-23T02:18:26.153Z,50.60
2018-02-23T02:20:53.617Z,50.30
2018-02-23T02:23:21.229Z,50.80
2018-02-23T02:25:49.134Z,50.70
2018-02-23T02:28:16.574Z,50.70
2018-02-23T02:30:44.468Z,50.60
2018-02-23T02:33:11.934Z,50.60
2018-02-23T02:35:39.436Z,50.60
2018-02-23T02:38:06.902Z,50.70
2018-02-23T02:40:34.462Z,50.80
2018-02-23T02:43:01.961Z,50.90
2018-02-23T02:45:29.390Z,50.80
2018-02-23T02:47:56.835Z,50.50
2018-02-23T02:50:24.306Z,50.50
2018-02-23T02:52:51.872Z,50.60
2018-02-23T02:55:19.353Z,50.70
2018-02-23T02:57:46.809Z,50.70
2018-02-23T03:00:14.280Z,50.50
2018-02-23T03:02:42.154Z,50.20
2018-02-23T03:05:10.090Z,50.20
2018-02-23T03:07:37.585Z,50.20
2018-02-23T03:10:05.067Z,50.00
2018-02-23T03:12:32.545Z,50.40
2018-02-23T03:15:00.478Z,50.40
2018-02-23T03:17:28.335Z,50.70
2018-02-23T03:19:55.893Z,50.70
2018-02-23T03:22:23.348Z,50.90
2018-02-23T03:24:50.817Z,51.00
2018-02-23T03:27:18.292Z,51.00
2018-02-23T03:29:45.836Z,50.60
2018-02-23T03:32:13.608Z,50.60
2018-02-23T03:34:41.092Z,50.70
2018-02-23T03:37:08.538Z,50.60
2018-02-23T03:39:36.098Z,51.00
2018-02-23T03:42:03.552Z,50.60
2018-02-23T03:44:31.009Z,51.20
2018-02-23T03:46:58.490Z,51.50
2018-02-23T03:49:25.973Z,51.40
2018-02-23T03:51:53.913Z,51.10
2018-02-23T03:54:21.367Z,51.10
2018-02-23T03:56:48.851Z,51.30
2018-02-23T03:59:16.337Z,51.10
2018-02-23T04:01:44.274Z,51.10
2018-02-23T04:04:11.779Z,51.10
2018-02-23T04:06:39.264Z,51.30
2018-02-23T04:09:06.760Z,51.50
2018-02-23T04:11:34.230Z,51.20
2018-02-23T04:14:02.422Z,51.20
2018-02-23T04:16:29.876Z,51.70
2018-02-23T04:18:57.424Z,51.40
2018-02-23T04:21:24.994Z,51.70
2018-02-23T04:23:52.456Z,51.80
2018-02-23T04:26:19.976Z,51.60
2018-02-23T04:28:47.423Z,51.30
2018-02-23T04:31:15.363Z,51.30
2018-02-23T04:33:42.824Z,51.30
2018-02-23T04:36:10.316Z,51.40
2018-02-23T04:38:38.170Z,51.60
2018-02-23T04:41:06.028Z,51.40
2018-02-23T04:43:33.587Z,51.40
2018-02-23T04:46:01.155Z,50.90
2018-02-23T04:48:28.719Z,51.20
2018-02-23T04:50:56.636Z,50.90
2018-02-23T04:53:24.141Z,51.00
2018-02-23T04:55:51.639Z,51.00
2018-02-23T04:58:19.577Z,51.40
2018-02-23T05:00:47.040Z,51.30
2018-02-23T05:03:14.506Z,51.60
2018-02-23T05:05:41.950Z,50.90
2018-02-23T05:08:09.400Z,51.20
2018-02-23T05:10:36.891Z,51.10
2018-02-23T05:13:04.351Z,51.10
2018-02-23T05:15:31.914Z,50.90
2018-02-23T05:17:59.372Z,50.90
2018-02-23T05:20:26.844Z,50.80
2018-02-23T05:22:54.317Z,50.90
2018-02-23T05:25:22.200Z,50.70
2018-02-23T05:27:50.158Z,50.60
2018-02-23T05:30:17.640Z,50.60
2018-02-23T05:32:45.877Z,50.30
2018-02-23T05:35:13.440Z,50.30
2018-02-23T05:37:40.885Z,50.20
2018-02-23T05:40:08.391Z,50.00
2018-02-23T05:42:35.956Z,49.90
2018-02-23T05:45:04.654Z,50.00
2018-02-23T05:47:32.504Z,49.80
2018-02-23T05:49:59.959Z,49.80
2018-02-23T05:52:27.535Z,50.10
2018-02-23T05:54:54.989Z,50.00
2018-02-23T05:57:22.451Z,49.80
2018-02-23T05:59:49.911Z,50.10
2018-02-23T06:02:17.387Z,50.10
2018-02-23T06:04:45.333Z,50.30
2018-02-23T06:07:12.806Z,50.30
2018-02-23T06:09:40.262Z,50.10
2018-02-23T06:12:07.744Z,50.50
2018-02-23T06:14:35.196Z,50.20
2018-02-23T06:17:02.643Z,50.10
2018-02-23T06:19:36.229Z,50.30
2018-02-23T06:22:03.697Z,50.30
2018-02-23T06:24:31.592Z,50.20
2018-02-23T06:26:59.065Z,50.20
2018-02-23T06:29:26.615Z,50.00
2018-02-23T06:31:54.130Z,49.90
2018-02-23T06:34:21.609Z,50.10
2018-02-23T06:36:49.059Z,50.20
2018-02-23T06:39:16.557Z,50.00
2018-02-23T06:41:44.054Z,50.10
2018-02-23T06:44:11.934Z,50.00
2018-02-23T06:46:40.022Z,50.00
2018-02-23T06:49:07.494Z,49.90
2018-02-23T06:51:35.608Z,49.60
2018-02-23T06:54:03.075Z,49.80
2018-02-23T06:56:30.531Z,49.90
2018-02-23T06:58:58.012Z,49.90
2018-02-23T07:01:25.977Z,50.00
2018-02-23T07:03:53.438Z,50.00
2018-02-23T07:06:20.893Z,49.60
2018-02-23T07:08:48.357Z,49.60
2018-02-23T07:11:15.985Z,49.40
2018-02-23T07:13:43.481Z,50.10
2018-02-23T07:16:10.956Z,50.00
2018-02-23T07:18:39.112Z,49.60
2018-02-23T07:21:06.624Z,49.50
2018-02-23T07:23:34.477Z,49.40
2018-02-23T07:26:02.349Z,48.60
2018-02-23T07:28:30.221Z,49.40
2018-02-23T07:30:58.113Z,49.40
2018-02-23T07:33:25.734Z,49.40
2018-02-23T07:35:53.201Z,49.40
2018-02-23T07:38:20.826Z,48.90
2018-02-23T07:40:48.295Z,49.40
2018-02-23T07:43:15.949Z,49.30
2018-02-23T07:45:43.417Z,49.00
2018-02-23T07:48:10.864Z,49.60
2018-02-23T07:50:38.338Z,49.20
2018-02-23T07:53:05.782Z,49.10
2018-02-23T07:55:33.428Z,48.80
2018-02-23T07:58:01.281Z,49.10
2018-02-23T08:00:28.746Z,49.10
2018-02-23T08:02:57.126Z,49.00
2018-02-23T08:05:24.591Z,49.00
2018-02-23T08:07:52.156Z,48.10
2018-02-23T08:10:20.025Z,49.00
2018-02-23T08:12:47.954Z,48.20
2018-02-23T08:15:15.437Z,48.20
2018-02-23T08:17:43.021Z,48.20
2018-02-23T08:20:10.593Z,48.50
2018-02-23T08:22:38.943Z,48.00
2018-02-23T08:25:06.512Z,48.70
2018-02-23T08:27:34.084Z,48.10
2018-02-23T08:30:01.562Z,48.60
2018-02-23T08:32:29.025Z,48.10
2018-02-23T08:34:56.878Z,48.50
2018-02-23T08:37:24.344Z,48.50
2018-02-23T08:39:51.889Z,47.80
2018-02-23T08:42:19.451Z,48.10
2018-02-23T08:44:46.918Z,48.10
2018-02-23T08:47:14.386Z,48.40
2018-02-23T08:49:41.927Z,48.00
2018-02-23T08:52:09.406Z,47.60
2018-02-23T08:54:36.855Z,47.90
2018-02-23T08:57:04.341Z,47.50
2018-02-23T08:59:32.230Z,47.50
2018-02-23T09:02:00.221Z,47.40
2018-02-23T09:04:27.714Z,47.40
2018-02-23T09:06:55.176Z,47.90
2018-02-23T09:09:22.666Z,47.80
2018-02-23T09:11:50.137Z,47.70
2018-02-23T09:14:17.706Z,47.70
2018-02-23T09:16:45.254Z,47.70
2018-02-23T09:19:12.702Z,47.50
2018-02-23T09:21:40.182Z,47.90
2018-02-23T09:24:07.645Z,47.90
2018-02-23T09:26:35.121Z,47.90
2018-02-23T09:29:02.587Z,46.90
2018-02-23T09:31:30.125Z,46.80
2018-02-23T09:34:09.468Z,47.10
2018-02-23T09:36:37.036Z,47.20
2018-02-23T09:39:04.606Z,47.00
2018-02-23T09:41:32.319Z,46.90
2018-02-23T09:43:59.817Z,46.30
2018-02-23T09:46:27.276Z,46.40
2018-02-23T09:48:55.575Z,46.50
2018-02-23T09:51:23.443Z,45.10
2018-02-23T09:53:50.990Z,45.10
2018-02-23T09:56:19.308Z,44.90
2018-02-23T09:58:47.249Z,44.30
2018-02-23T10:01:14.695Z,44.30
2018-02-23T10:03:42.164Z,44.10
2018-02-23T10:06:09.661Z,44.30
2018-02-23T10:08:37.109Z,44.00
2018-02-23T10:11:04.585Z,43.40
2018-02-23T10:13:32.525Z,43.60
2018-02-23T10:16:00.014Z,43.60
2018-02-23T10:18:27.474Z,43.00
2018-02-23T10:20:55.435Z,43.20
2018-02-23T10:23:22.940Z,43.20
2018-02-23T10:25:50.393Z,43.20
2018-02-23T10:28:18.255Z,43.00
2018-02-23T10:30:46.197Z,42.40
2018-02-23T10:33:14.454Z,42.40
2018-02-23T10:35:41.933Z,42.10
2018-02-23T10:38:09.416Z,41.70
2018-02-23T10:40:37.314Z,41.30
2018-02-23T10:43:04.793Z,41.30
2018-02-23T10:45:32.305Z,41.70
2018-02-23T10:47:59.811Z,41.00
2018-02-23T10:50:27.343Z,41.10
2018-02-23T10:52:55.353Z,41.50
2018-02-23T10:55:22.846Z,41.60
2018-02-23T10:57:50.345Z,41.10
2018-02-23T11:00:18.256Z,41.80
2018-02-23T11:02:45.789Z,41.80
2018-02-23T11:05:13.673Z,42.10
2018-02-23T11:07:41.158Z,42.10
2018-02-23T11:10:08.652Z,42.40
2018-02-23T11:12:36.233Z,42.20
2018-02-23T11:15:04.149Z,43.00
2018-02-23T11:17:31.824Z,43.10
2018-02-23T11:20:00.573Z,42.70
2018-02-23T11:22:28.161Z,42.10
2018-02-23T11:24:55.738Z,42.80
2018-02-23T11:27:23.258Z,42.70
2018-02-23T11:29:50.737Z,42.80
2018-02-23T11:32:18.660Z,42.70
2018-02-23T11:34:46.173Z,42.70
2018-02-23T11:37:14.814Z,42.60
2018-02-23T11:39:42.354Z,42.60
2018-02-23T11:42:10.893Z,42.80
2018-02-23T11:44:38.518Z,41.90
2018-02-23T11:47:06.053Z,41.80
2018-02-23T11:49:33.648Z,42.20
2018-02-23T11:52:01.183Z,41.40
2018-02-23T11:54:28.709Z,41.00
2018-02-23T11:56:56.622Z,41.50
2018-02-23T11:59:24.104Z,41.50
2018-02-23T12:01:51.584Z,41.60
2018-02-23T12:04:19.098Z,42.00
2018-02-23T12:06:47.074Z,41.10
2018-02-23T12:09:14.636Z,41.10
2018-02-23T12:11:42.172Z,40.20
2018-02-23T12:14:09.791Z,40.30
2018-02-23T12:16:37.295Z,39.40
2018-02-23T12:19:06.058Z,40.80
2018-02-23T12:21:33.578Z,40.60
2018-02-23T12:24:01.567Z,40.50
2018-02-23T12:26:29.085Z,40.60
2018-02-23T12:28:56.683Z,39.80
2018-02-23T12:31:24.230Z,39.10
2018-02-23T12:33:52.131Z,39.70
2018-02-23T12:36:19.648Z,39.70
2018-02-23T12:38:47.228Z,40.30
2018-02-23T12:41:14.830Z,38.50
2018-02-23T12:43:42.337Z,39.10
2018-02-23T12:46:09.949Z,39.60
2018-02-23T12:48:37.585Z,39.60
2018-02-23T12:51:05.899Z,39.70
2018-02-23T12:53:33.416Z,39.70
2018-02-23T12:56:00.950Z,40.00
2018-02-23T12:58:28.431Z,39.50
2018-02-23T13:00:55.976Z,38.60
2018-02-23T13:03:23.484Z,39.20
2018-02-23T13:05:51.403Z,39.40
2018-02-23T13:08:18.911Z,39.40
2018-02-23T13:10:46.517Z,39.60
2018-02-23T13:13:14.913Z,39.20
2018-02-23T13:15:42.423Z,39.60
2018-02-23T13:18:10.339Z,39.10
2018-02-23T13:20:37.880Z,39.10
2018-02-23T13:23:05.774Z,39.10
2018-02-23T13:25:33.311Z,39.10
2018-02-23T13:28:06.705Z,39.00
2018-02-23T13:30:34.666Z,39.00
2018-02-23T13:33:03.415Z,38.80
2018-02-23T13:35:30.970Z,38.80
2018-02-23T13:37:58.480Z,39.00
2018-02-23T13:40:25.995Z,38.40
2018-02-23T13:42:53.651Z,38.10
2018-02-23T13:45:21.292Z,38.70
2018-02-23T13:47:49.203Z,37.40
2018-02-23T13:50:16.820Z,37.40
2018-02-23T13:52:44.732Z,37.70
2018-02-23T13:55:12.223Z,37.80
2018-02-23T13:57:39.791Z,38.10
2018-02-23T14:00:07.851Z,38.50
2018-02-23T14:02:35.357Z,37.40
2018-02-23T14:05:02.931Z,38.10
2018-02-23T14:07:32.780Z,38.60
2018-02-23T14:10:00.279Z,38.60
2018-02-23T14:12:28.008Z,38.70
2018-02-23T14:14:55.589Z,38.90
2018-02-23T14:17:23.156Z,38.80
2018-02-23T14:19:50.692Z,38.70
2018-02-23T14:22:18.216Z,38.00
2018-02-23T14:24:46.214Z,37.60
2018-02-23T14:27:14.106Z,37.50
2018-02-23T14:29:41.621Z,37.50
2018-02-23T14:32:09.540Z,37.30
2018-02-23T14:34:37.145Z,37.30
2018-02-23T14:37:04.713Z,37.60
2018-02-23T14:39:32.230Z,37.00
2018-02-23T14:42:01.775Z,37.10
2018-02-23T14:44:29.294Z,37.40
2018-02-23T14:46:56.827Z,37.30
2018-02-23T14:49:24.356Z,37.60
2018-02-23T14:51:51.867Z,37.30
2018-02-23T14:54:19.758Z,37.10
2018-02-23T14:56:47.271Z,37.10
2018-02-23T14:59:14.758Z,37.40
2018-02-23T15:01:42.661Z,37.50
2018-02-23T15:04:10.200Z,37.40
2018-02-23T15:06:38.209Z,37.00
2018-02-23T15:09:05.857Z,37.00
2018-02-23T15:11:33.400Z,36.50
2018-02-23T15:14:01.266Z,36.90
2018-02-23T15:16:29.183Z,37.00
2018-02-23T15:18:56.665Z,37.00
2018-02-23T15:21:24.174Z,37.00
2018-02-23T15:23:55.804Z,36.50
2018-02-23T15:26:23.296Z,36.50
2018-02-23T15:28:51.305Z,36.70
2018-02-23T15:31:30.937Z,36.70
2018-02-23T15:33:58.471Z,36.00
2018-02-23T15:36:26.377Z,36.10
2018-02-23T15:38:53.919Z,36.10
2018-02-23T15:41:21.650Z,36.50
2018-02-23T15:43:49.179Z,36.60
2018-02-23T15:46:16.785Z,36.80
2018-02-23T15:48:50.445Z,37.90
2018-02-23T15:51:36.672Z,37.90
2018-02-23T15:54:04.190Z,38.10
2018-02-23T15:56:31.729Z,38.30
2018-02-23T15:58:59.653Z,38.10
2018-02-23T16:01:27.170Z,38.10
2018-02-23T16:03:54.694Z,38.30
2018-02-23T16:06:22.196Z,39.10
2018-02-23T16:08:49.683Z,38.90
2018-02-23T16:11:17.357Z,38.90
2018-02-23T16:13:44.884Z,39.70
2018-02-23T16:16:12.785Z,40.10
2018-02-23T16:18:41.569Z,40.10
2018-02-23T16:21:09.068Z,40.10
2018-02-23T16:23:36.567Z,40.50
2018-02-23T16:26:04.090Z,40.50
2018-02-23T16:28:31.683Z,40.60
2018-02-23T16:30:59.671Z,41.10
2018-02-23T16:33:28.813Z,40.60
2018-02-23T16:35:56.333Z,40.50
2018-02-23T16:38:23.928Z,40.90
2018-02-23T16:40:51.524Z,41.10
2018-02-23T16:43:19.377Z,40.90
2018-02-23T16:45:47.127Z,40.90
2018-02-23T16:48:14.696Z,40.60
2018-02-23T16:50:43.739Z,40.70
2018-02-23T16:53:11.459Z,41.10
2018-02-23T16:55:39.004Z,41.20
2018-02-23T16:58:07.208Z,41.70
2018-02-23T17:00:35.658Z,41.60
2018-02-23T17:03:04.302Z,41.50
2018-02-23T17:05:34.182Z,41.80
2018-02-23T17:08:02.165Z,41.90
2018-02-23T17:10:29.917Z,41.90
2018-02-23T17:12:58.199Z,42.30
2018-02-23T17:15:25.772Z,42.30
2018-02-23T17:17:53.350Z,42.40
2018-02-23T17:20:20.952Z,42.40
2018-02-23T17:22:48.975Z,42.70
2018-02-23T17:25:16.565Z,42.80
2018-02-23T17:27:47.189Z,42.80
2018-02-23T17:30:16.577Z,42.70
2018-02-23T17:32:45.890Z,43.00
2018-02-23T17:35:16.421Z,43.20
2018-02-23T17:37:43.935Z,43.40
2018-02-23T17:40:11.612Z,43.40
2018-02-23T17:42:42.692Z,42.60
2018-02-23T17:45:10.445Z,42.60
2018-02-23T17:47:38.016Z,42.50
2018-02-23T17:50:05.600Z,43.00
2018-02-23T17:52:33.264Z,43.00
2018-02-23T17:55:00.920Z,43.30
2018-02-23T17:57:28.686Z,43.20
2018-02-23T17:59:56.576Z,43.10
2018-02-23T18:02:24.094Z,43.20
2018-02-23T18:04:52.523Z,42.90
2018-02-23T18:07:20.136Z,42.80
2018-02-23T18:09:48.445Z,43.30
2018-02-23T18:12:16.242Z,43.30
2018-02-23T18:14:45.009Z,43.40
2018-02-23T18:17:12.591Z,43.60
2018-02-23T18:19:40.197Z,42.90
2018-02-23T18:22:07.861Z,42.90
2018-02-23T18:24:35.581Z,42.50
2018-02-23T18:27:03.215Z,42.70
2018-02-23T18:29:31.327Z,43.20
2018-02-23T18:31:58.989Z,43.20
2018-02-23T18:34:26.644Z,43.40
2018-02-23T18:36:54.332Z,42.80
2018-02-23T18:39:22.012Z,44.00
2018-02-23T18:41:49.865Z,43.30
2018-02-23T18:44:17.632Z,43.30
2018-02-23T18:46:45.160Z,43.60
2018-02-23T18:49:13.280Z,43.20
2018-02-23T18:51:40.839Z,43.20
2018-02-23T18:54:08.530Z,43.50
2018-02-23T18:56:36.329Z,43.10
2018-02-23T18:59:04.017Z,43.20
2018-02-23T19:01:31.675Z,43.50
2018-02-23T19:03:59.436Z,43.20
2018-02-23T19:06:27.645Z,44.00
2018-02-23T19:08:55.318Z,44.00
2018-02-23T19:11:26.813Z,44.10
2018-02-23T19:13:54.362Z,44.10
2018-02-23T19:16:22.043Z,44.20
2018-02-23T19:18:49.627Z,44.00
2018-02-23T19:21:17.741Z,44.30
2018-02-23T19:23:45.456Z,44.30
2018-02-23T19:26:13.386Z,43.90
2018-02-23T19:28:40.968Z,43.90
2018-02-23T19:31:08.507Z,44.30
2018-02-23T19:33:36.977Z,44.80
2018-02-23T19:36:04.646Z,44.90
2018-02-23T19:38:32.285Z,45.00
2018-02-23T19:41:00.341Z,44.60
2018-02-23T19:43:27.850Z,44.60
2018-02-23T19:45:55.453Z,45.20
2018-02-23T19:48:24.251Z,45.00
2018-02-23T19:50:51.881Z,45.10
2018-02-23T19:53:19.534Z,44.60
2018-02-23T19:55:47.301Z,45.20
2018-02-23T19:58:15.014Z,44.90
2018-02-23T20:00:42.814Z,45.20
2018-02-23T20:03:11.867Z,45.00
2018-02-23T20:05:39.432Z,45.00
2018-02-23T20:08:07.787Z,45.00
2018-02-23T20:10:35.411Z,45.20
2018-02-23T20:13:03.476Z,44.90
2018-02-23T20:15:31.499Z,44.90
2018-02-23T20:17:59.327Z,45.50
2018-02-23T20:20:27.484Z,45.60
2018-02-23T20:22:55.049Z,45.60
2018-02-23T20:25:22.645Z,45.60
2018-02-23T20:27:50.243Z,46.00
2018-02-23T20:30:19.350Z,46.00
2018-02-23T20:32:46.995Z,46.00
2018-02-23T20:35:15.247Z,46.10
2018-02-23T20:37:43.424Z,46.50
2018-02-23T20:40:11.554Z,46.80
2018-02-23T20:42:39.144Z,46.70
2018-02-23T20:45:08.811Z,46.60
2018-02-23T20:47:36.416Z,46.70
2018-02-23T20:50:04.041Z,46.70
2018-02-23T20:52:31.801Z,46.90
2018-02-23T20:54:59.588Z,46.80
2018-02-23T20:57:27.152Z,47.00
2018-02-23T20:59:55.020Z,46.80
2018-02-23T21:02:23.097Z,47.00
2018-02-23T21:04:51.061Z,47.20
2018-02-23T21:07:18.785Z,47.10
2018-02-23T21:09:47.020Z,47.60
2018-02-23T21:12:14.609Z,47.50
2018-02-23T21:14:42.287Z,47.30
2018-02-23T21:17:10.036Z,47.20
2018-02-23T21:19:37.722Z,47.00
2018-02-23T21:22:05.373Z,47.40
2018-02-23T21:24:33.072Z,47.10
2018-02-23T21:27:00.798Z,46.90
2018-02-23T21:29:28.471Z,47.40
2018-02-23T21:31:57.206Z,47.30
2018-02-23T21:34:25.362Z,47.40
2018-02-23T21:36:52.988Z,47.40
2018-02-23T21:39:20.772Z,47.90
2018-02-23T21:41:54.957Z,48.30
2018-02-23T21:44:22.886Z,48.10
2018-02-23T21:46:51.215Z,47.60
2018-02-23T21:49:19.647Z,47.80
2018-02-23T21:51:47.491Z,48.00
2018-02-23T21:54:15.514Z,47.50
2018-02-23T21:56:43.971Z,47.60
2018-02-23T21:59:11.911Z,47.60
2018-02-23T22:01:39.472Z,47.40
2018-02-23T22:04:07.047Z,48.10
2018-02-23T22:06:34.658Z,47.70
2018-02-23T22:09:02.192Z,47.80
2018-02-23T22:11:29.752Z,47.60
2018-02-23T22:13:57.285Z,47.30
2018-02-23T22:16:24.906Z,48.10
2018-02-23T22:18:52.456Z,48.10
2018-02-23T22:21:20.006Z,47.50
2018-02-23T22:23:47.589Z,47.60
2018-02-23T22:26:15.517Z,48.00
2018-02-23T22:28:43.236Z,48.20
2018-02-23T22:31:10.776Z,48.00
2018-02-23T22:33:38.387Z,47.70
2018-02-23T22:36:06.482Z,47.50
2018-02-23T22:38:34.047Z,47.50
2018-02-23T22:41:01.597Z,47.70
2018-02-23T22:43:29.566Z,48.00
2018-02-23T22:45:57.520Z,48.20
2018-02-23T22:48:25.004Z,48.20
2018-02-23T22:50:52.909Z,48.00
2018-02-23T22:53:21.780Z,48.00
2018-02-23T22:55:49.488Z,48.50
2018-02-23T22:58:16.997Z,48.60
2018-02-23T23:00:45.106Z,48.80
2018-02-23T23:03:12.629Z,48.80
2018-02-23T23:05:40.159Z,48.50
2018-02-23T23:08:07.696Z,48.70
2018-02-23T23:10:35.267Z,48.90
2018-02-23T23:13:02.758Z,48.60
2018-02-23T23:15:30.261Z,48.70
2018-02-23T23:17:58.216Z,48.80
2018-02-23T23:20:25.777Z,48.80
2018-02-23T23:22:53.355Z,48.80
2018-02-23T23:25:20.849Z,48.40
2018-02-23T23:27:48.410Z,48.80
2018-02-23T23:30:15.900Z,49.00
2018-02-23T23:32:43.392Z,48.40
2018-02-23T23:35:10.961Z,48.60
2018-02-23T23:37:38.870Z,48.40
2018-02-23T23:40:06.365Z,48.40
2018-02-23T23:42:33.990Z,48.50
2018-02-23T23:45:01.521Z,48.80
2018-02-23T23:47:29.742Z,48.90
2018-02-23T23:49:57.293Z,49.00
2018-02-23T23:52:24.825Z,49.70
2018-02-23T23:54:52.310Z,49.20
2018-02-23T23:57:20.191Z,49.30
2018-02-23T23:59:47.668Z,49.30
